Time;durP1;ratioP1;P1;durP2;ratioP2;P2;SDS_P1;SDS_P2;PMS_P1;PMS_P2;Temp;Humidity;BMP_temperature;BMP_pressure;BME280_temperature;BME280_humidity;BME280_pressure;Samples;Min_cycle;Max_cycle;Signal;HPM_P1;HPM_P2
2024/04/03 00:01:20;;;;;;;4.23;2.13;;;;;;;14.32;43.62;98256.63;6811912;29;20321;-83
2024/04/03 00:04:41;;;;;;;7.27;2.30;;;;;;;14.77;42.35;98257.47;6810450;29;20261;-83
2024/04/03 00:08:03;;;;;;;4.87;2.10;;;;;;;14.65;42.37;98258.59;6809344;29;20239;-83
2024/04/03 00:11:24;;;;;;;2.13;1.97;;;;;;;14.11;44.02;98248.31;6810443;29;20294;-83
2024/04/03 00:14:46;;;;;;;2.20;2.00;;;;;;;14.44;42.90;98243.84;6810727;29;20310;-83
2024/04/03 00:18:08;;;;;;;4.17;2.80;;;;;;;13.77;45.64;98247.34;6809464;29;20220;-83
2024/04/03 00:21:28;;;;;;;3.67;2.90;;;;;;;13.41;46.85;98244.09;6809557;29;20246;-83
2024/04/03 00:24:50;;;;;;;5.87;3.10;;;;;;;13.96;45.23;98234.44;6811521;29;20213;-83
2024/04/03 00:28:11;;;;;;;4.70;3.30;;;;;;;13.46;47.31;98236.09;6814427;29;20382;-83
2024/04/03 00:31:34;;;;;;;9.00;3.17;;;;;;;13.13;47.85;98246.69;6814697;29;20301;-83
2024/04/03 00:34:54;;;;;;;4.27;2.40;;;;;;;13.34;47.34;98233.38;6815526;29;20217;-83
2024/04/03 00:38:16;;;;;;;3.83;2.33;;;;;;;13.70;45.98;98237.69;6815103;29;20227;-83
2024/04/03 00:41:37;;;;;;;2.97;2.20;;;;;;;13.72;45.41;98230.97;6815863;29;20237;-83
2024/04/03 00:44:58;;;;;;;6.60;2.40;;;;;;;13.87;44.82;98241.31;6815558;29;20231;-83
2024/04/03 00:48:21;;;;;;;3.47;2.03;;;;;;;13.76;45.20;98218.59;6815288;29;20655;-83
2024/04/03 00:51:42;;;;;;;2.57;1.93;;;;;;;13.34;46.68;98230.66;6816135;29;20384;-83
2024/04/03 00:55:04;;;;;;;4.10;2.10;;;;;;;13.50;46.21;98207.44;6816798;29;20657;-83
2024/04/03 00:58:25;;;;;;;2.60;2.20;;;;;;;13.73;45.93;98210.13;6815192;29;20251;-82
2024/04/03 01:01:48;;;;;;;5.47;2.27;;;;;;;13.42;46.81;98202.41;6815388;29;20293;-83
2024/04/03 01:05:10;;;;;;;3.97;2.57;;;;;;;13.44;46.87;98197.56;6813798;29;20261;-82
2024/04/03 01:08:33;;;;;;;2.80;2.30;;;;;;;13.47;46.69;98183.56;6813077;29;20318;-83
2024/04/03 01:11:53;;;;;;;2.60;1.90;;;;;;;13.24;47.20;98194.44;6814051;29;20303;-82
2024/04/03 01:15:15;;;;;;;4.63;2.10;;;;;;;12.73;47.72;98202.38;6813821;29;20220;-83
2024/04/03 01:18:36;;;;;;;4.20;2.13;;;;;;;13.00;47.30;98185.50;6813452;29;20733;-81
2024/04/03 01:21:59;;;;;;;4.40;2.30;;;;;;;13.17;47.20;98199.16;6814681;29;20273;-83
2024/04/03 01:25:21;;;;;;;4.57;2.20;;;;;;;13.02;47.36;98186.09;6814917;29;20239;-82
2024/04/03 01:28:42;;;;;;;4.63;2.63;;;;;;;13.05;47.65;98180.19;6813571;29;20293;-82
2024/04/03 01:32:04;;;;;;;2.40;2.20;;;;;;;12.66;48.55;98188.13;6817305;29;20206;-83
2024/04/03 01:35:24;;;;;;;2.90;2.23;;;;;;;13.04;47.42;98172.31;6802616;29;20246;-82
2024/04/03 01:38:46;;;;;;;2.50;2.30;;;;;;;12.73;48.08;98168.03;6822760;29;20621;-83
2024/04/03 01:42:09;;;;;;;3.27;2.10;;;;;;;12.78;48.41;98161.91;6828186;29;20206;-82
2024/04/03 01:45:30;;;;;;;2.40;2.07;;;;;;;12.86;48.17;98165.09;6828227;29;20780;-82
2024/04/03 01:48:51;;;;;;;2.53;2.33;;;;;;;12.93;48.29;98173.13;6827580;29;20327;-84
2024/04/03 01:52:12;;;;;;;4.30;2.47;;;;;;;12.75;48.01;98162.41;6828512;29;20214;-82
2024/04/03 01:55:33;;;;;;;2.60;2.20;;;;;;;12.57;48.83;98167.91;6829472;29;20273;-82
2024/04/03 01:58:56;;;;;;;2.67;1.93;;;;;;;12.43;48.97;98163.75;6828035;29;20633;-83
2024/04/03 02:02:17;;;;;;;3.07;2.10;;;;;;;12.66;48.82;98161.94;6829103;29;20210;-82
2024/04/03 02:05:38;;;;;;;2.40;2.20;;;;;;;12.74;48.47;98161.56;6828813;29;20254;-82
2024/04/03 02:08:59;;;;;;;3.57;2.20;;;;;;;12.61;48.96;98153.69;6828605;29;20262;-81
2024/04/03 02:12:21;;;;;;;2.87;2.20;;;;;;;12.06;50.67;98154.97;6830025;29;20214;-82
2024/04/03 02:15:52;;;;;;;2.93;2.40;;;;;;;12.36;50.27;98150.38;6831858;29;20214;-82
2024/04/03 02:19:14;;;;;;;2.33;2.10;;;;;;;12.09;50.40;98145.59;6830051;29;20599;-82
2024/04/03 02:22:35;;;;;;;2.20;2.10;;;;;;;12.45;49.63;98157.06;6832094;29;20230;-82
2024/04/03 02:25:56;;;;;;;3.50;2.27;;;;;;;12.21;49.72;98111.31;6843246;28;20292;-82
2024/04/03 02:29:19;;;;;;;4.87;2.40;;;;;;;12.43;49.57;98137.56;6822049;29;20238;-82
2024/04/03 02:32:41;;;;;;;4.00;2.40;;;;;;;11.96;51.23;98135.78;6822446;29;20614;-83
2024/04/03 02:36:08;;;;;;;3.63;2.40;;;;;;;12.10;51.41;98139.13;6823104;29;20210;-83
2024/04/03 02:39:31;;;;;;;2.17;2.00;;;;;;;12.23;51.07;98145.13;6797146;29;20277;-82
2024/04/03 02:42:51;;;;;;;4.10;2.30;;;;;;;12.03;50.62;98133.00;6791535;29;20215;-81
2024/04/03 02:46:13;;;;;;;2.60;2.33;;;;;;;12.43;50.35;98125.91;6788986;29;20215;-82
2024/04/03 02:49:35;;;;;;;4.00;2.20;;;;;;;12.42;50.17;98111.59;6813831;29;20266;-82
2024/04/03 02:52:56;;;;;;;2.17;2.00;;;;;;;12.39;49.50;98090.41;6814504;29;20214;-82
2024/04/03 02:56:17;;;;;;;5.37;2.40;;;;;;;12.03;51.40;98104.09;6814346;29;20259;-82
2024/04/03 02:59:38;;;;;;;4.00;2.57;;;;;;;11.77;52.76;98106.38;6814619;29;20230;-82
2024/04/03 03:02:59;;;;;;;3.27;2.37;;;;;;;11.73;52.61;98110.56;6815016;29;20370;-82
2024/04/03 03:06:22;;;;;;;4.40;2.20;;;;;;;11.21;54.09;98113.94;6815736;29;20222;-82
2024/04/03 03:09:42;;;;;;;4.57;2.43;;;;;;;10.92;54.79;98102.00;6788824;29;20236;-82
2024/04/03 03:13:04;;;;;;;3.53;2.80;;;;;;;11.54;52.87;98093.56;6792464;29;20283;-83
2024/04/03 03:16:24;;;;;;;2.30;2.10;;;;;;;12.26;50.80;98076.28;6790403;29;20295;-83
2024/04/03 03:19:46;;;;;;;2.57;2.37;;;;;;;12.48;51.15;98091.72;6789006;29;20230;-83
2024/04/03 03:23:09;;;;;;;2.93;2.30;;;;;;;12.56;51.49;98077.03;6789506;29;20278;-83
2024/04/03 03:26:30;;;;;;;2.43;2.03;;;;;;;12.83;50.62;98080.88;6789366;29;20268;-82
2024/04/03 03:29:52;;;;;;;4.30;2.13;;;;;;;12.56;50.53;98041.88;6789227;29;20343;-83
2024/04/03 03:33:13;;;;;;;2.77;2.03;;;;;;;12.65;50.95;98049.41;6791352;29;20344;-81
2024/04/03 03:36:35;;;;;;;4.23;2.40;;;;;;;12.74;50.53;98052.56;6788643;29;20227;-83
2024/04/03 03:40:00;;;;;;;2.10;2.00;;;;;;;12.90;50.02;98049.13;6815708;29;20317;-82
2024/04/03 03:43:22;;;;;;;5.77;2.50;;;;;;;12.69;50.38;98050.56;6815861;29;20198;-82
2024/04/03 03:46:43;;;;;;;2.43;2.23;;;;;;;12.79;50.39;98031.84;6814374;29;20287;-82
2024/04/03 03:53:44;;;;;;;6.67;2.27;;;;;;;12.55;51.43;98030.25;6815255;29;20196;-82
2024/04/03 03:57:07;;;;;;;2.70;2.30;;;;;;;12.53;51.32;98020.72;6814152;29;20206;-82
2024/04/03 04:00:29;;;;;;;5.23;2.60;;;;;;;12.42;51.98;98019.66;6815034;29;20378;-82
2024/04/03 04:03:50;;;;;;;3.93;2.77;;;;;;;12.56;51.83;98022.97;6815493;29;20258;-82
2024/04/03 04:07:12;;;;;;;6.50;2.17;;;;;;;12.60;52.01;98021.41;6814705;29;20285;-81
2024/04/03 04:10:32;;;;;;;5.87;2.27;;;;;;;12.78;51.59;98018.56;6814434;29;20327;-83
2024/04/03 04:13:55;;;;;;;2.73;2.30;;;;;;;12.61;51.72;98021.19;6814034;29;20235;-83
2024/04/03 04:17:16;;;;;;;2.40;2.20;;;;;;;12.28;52.41;98012.03;6813614;29;20230;-83
2024/04/03 04:20:38;;;;;;;2.93;2.20;;;;;;;12.45;52.11;98016.47;6813523;29;20298;-83
2024/04/03 04:23:59;;;;;;;2.60;2.40;;;;;;;12.27;52.14;98013.91;6813884;29;20250;-83
2024/04/03 04:27:22;;;;;;;4.47;2.47;;;;;;;12.12;51.75;98016.25;6813813;29;20292;-83
2024/04/03 04:30:45;;;;;;;4.20;2.20;;;;;;;12.26;50.92;97973.59;6814339;29;20322;-83
2024/04/03 04:34:06;;;;;;;3.50;2.10;;;;;;;12.63;50.41;98027.16;6815194;29;20222;-81
2024/04/03 04:37:28;;;;;;;2.37;2.13;;;;;;;12.80;50.16;98014.56;6814793;29;20246;-83
2024/04/03 04:40:53;;;;;;;4.50;2.27;;;;;;;12.85;49.76;98022.78;6814365;29;20378;-84
2024/04/03 04:44:14;;;;;;;2.30;2.10;;;;;;;12.51;50.05;97996.59;6814168;29;20214;-83
2024/04/03 04:47:37;;;;;;;3.00;2.03;;;;;;;12.39;48.46;97946.34;6812987;29;20289;-83
2024/04/03 04:50:59;;;;;;;2.00;1.90;;;;;;;13.49;47.06;98008.97;6813165;29;20307;-82
2024/04/03 04:54:22;;;;;;;2.30;2.10;;;;;;;13.67;47.14;97999.78;6813235;29;20203;-83
2024/04/03 04:57:43;;;;;;;2.00;1.90;;;;;;;13.54;47.83;98000.94;6812405;29;20211;-83
2024/04/03 05:01:06;;;;;;;4.37;2.23;;;;;;;12.81;49.87;97985.63;6815631;29;20210;-82
2024/04/03 05:04:29;;;;;;;2.40;2.10;;;;;;;13.48;48.37;98010.03;6812996;29;20287;-81
2024/04/03 05:07:50;;;;;;;2.20;2.00;;;;;;;13.64;47.43;97992.16;6811324;29;20798;-83
2024/04/03 05:11:11;;;;;;;3.43;2.70;;;;;;;13.79;46.88;97992.41;6811993;29;20286;-82
2024/04/03 05:14:33;;;;;;;2.03;1.70;;;;;;;13.93;44.20;98005.41;6811294;29;20227;-82
2024/04/03 05:17:53;;;;;;;1.80;1.70;;;;;;;14.17;43.30;98006.06;6812119;29;20249;-82
2024/04/03 05:21:17;;;;;;;2.27;1.93;;;;;;;14.42;43.00;98012.75;6812892;29;20218;-83
2024/04/03 05:24:37;;;;;;;2.50;2.10;;;;;;;14.34;43.66;98001.50;6813722;29;20535;-83
2024/04/03 05:27:59;;;;;;;3.97;2.00;;;;;;;14.33;43.96;97997.94;6811603;29;20237;-82
2024/04/03 05:31:23;;;;;;;1.97;1.87;;;;;;;14.39;43.69;98013.22;6811858;29;20293;-83
2024/04/03 05:34:44;;;;;;;3.37;2.53;;;;;;;14.31;44.44;98016.38;6813317;29;20215;-81
2024/04/03 05:38:07;;;;;;;4.20;2.20;;;;;;;14.03;45.26;98027.25;6812660;29;20243;-82
2024/04/03 05:41:28;;;;;;;2.77;2.13;;;;;;;13.70;45.95;98027.19;6817303;29;20241;-83
2024/04/03 05:44:49;;;;;;;2.33;1.90;;;;;;;13.93;45.98;98031.69;6819119;29;20628;-84
2024/04/03 05:48:11;;;;;;;4.33;2.17;;;;;;;13.52;46.97;98032.03;6808576;29;20271;-84
2024/04/03 05:51:32;;;;;;;3.40;2.30;;;;;;;13.82;46.62;98013.59;6805898;29;20791;-84
2024/04/03 05:54:55;;;;;;;3.47;2.40;;;;;;;13.93;47.15;98018.94;6809808;29;20246;-85
2024/04/03 05:58:17;;;;;;;4.17;2.50;;;;;;;13.43;48.51;98020.75;6811317;29;20229;-83
2024/04/03 06:01:37;;;;;;;2.50;2.20;;;;;;;14.02;47.63;98022.91;6810556;29;20208;-83
2024/04/03 06:04:59;;;;;;;3.83;2.60;;;;;;;14.13;47.53;98026.59;6809405;29;20223;-83
2024/04/03 06:08:21;;;;;;;4.73;2.47;;;;;;;14.00;48.48;98035.91;6808779;29;20241;-83
2024/04/03 06:11:43;;;;;;;4.47;3.00;;;;;;;13.65;49.07;98046.09;6809779;29;20720;-84
2024/04/03 06:15:04;;;;;;;5.93;2.40;;;;;;;13.99;48.35;98055.91;6810982;29;20241;-80
2024/04/03 06:18:26;;;;;;;4.20;2.87;;;;;;;13.82;49.50;98048.84;6810333;29;20223;-82
2024/04/03 06:21:47;;;;;;;4.17;2.23;;;;;;;14.07;47.54;98060.94;6819061;29;20667;-84
2024/04/03 06:25:08;;;;;;;2.30;2.00;;;;;;;14.13;47.28;98072.69;6816418;29;20235;-84
2024/04/03 06:28:31;;;;;;;3.63;2.20;;;;;;;13.73;48.59;98077.38;6808066;29;20381;-84
2024/04/03 06:31:53;;;;;;;3.00;1.90;;;;;;;14.12;49.25;98098.97;6813124;29;20351;-83
2024/04/03 06:35:13;;;;;;;1.60;1.50;;;;;;;14.18;50.33;98084.44;6809456;29;20206;-83
2024/04/03 06:38:35;;;;;;;2.20;1.73;;;;;;;13.96;51.34;98063.72;6815260;29;20299;-83
2024/04/03 06:41:55;;;;;;;2.60;1.70;;;;;;;14.66;51.10;98063.00;6815920;29;20215;-83
2024/04/03 06:45:18;;;;;;;1.83;1.70;;;;;;;15.13;50.05;98056.06;6813931;29;20204;-83
2024/04/03 06:48:40;;;;;;;2.10;2.00;;;;;;;14.72;49.81;98063.91;6812278;29;20875;-82
2024/04/03 06:52:01;;;;;;;4.97;2.33;;;;;;;14.17;50.42;98066.50;6811977;29;20281;-84
2024/04/03 06:55:23;;;;;;;4.27;2.83;;;;;;;13.71;50.88;98039.72;6811830;29;20214;-84
2024/04/03 06:58:44;;;;;;;3.97;2.10;;;;;;;13.99;50.83;98041.56;6810927;29;20314;-83
2024/04/03 07:02:06;;;;;;;2.00;1.90;;;;;;;15.16;48.48;98060.19;6811244;29;20216;-84
2024/04/03 07:05:27;;;;;;;4.47;2.30;;;;;;;14.95;50.15;98078.09;6802422;29;21306;-84
2024/04/03 07:08:49;;;;;;;2.60;2.33;;;;;;;14.94;51.71;98091.91;6783781;29;20249;-83
2024/04/03 07:12:09;;;;;;;3.30;2.00;;;;;;;15.55;49.30;98080.78;6793629;29;20215;-81
2024/04/03 07:15:33;;;;;;;2.43;2.03;;;;;;;15.24;50.25;98104.03;6786321;29;20260;-84
2024/04/03 07:18:56;;;;;;;2.53;2.23;;;;;;;15.65;50.18;98118.94;6809586;29;20719;-84
2024/04/03 07:22:18;;;;;;;3.67;2.20;;;;;;;15.60;48.72;98127.03;6810023;29;20249;-84
2024/04/03 07:25:38;;;;;;;2.13;1.93;;;;;;;15.91;47.34;98131.75;6809357;29;20247;-84
2024/04/03 07:29:00;;;;;;;2.13;1.87;;;;;;;15.61;47.90;98126.78;6796917;29;20239;-84
2024/04/03 07:32:20;;;;;;;4.03;2.03;;;;;;;15.73;47.93;98124.75;6787759;29;20311;-83
2024/04/03 07:35:43;;;;;;;2.13;2.00;;;;;;;15.52;45.98;98120.16;6790108;29;20283;-83
2024/04/03 07:39:05;;;;;;;2.43;2.10;;;;;;;15.70;45.52;98127.97;6801555;29;20318;-84
2024/04/03 07:42:26;;;;;;;2.67;2.40;;;;;;;15.92;45.31;98141.56;6812297;29;20284;-83
2024/04/03 07:45:48;;;;;;;2.27;2.10;;;;;;;15.84;45.46;98128.41;6811134;29;20307;-83
2024/04/03 07:49:10;;;;;;;1.80;1.70;;;;;;;16.21;44.43;98134.81;6811457;29;20330;-84
2024/04/03 07:52:32;;;;;;;2.10;1.90;;;;;;;16.07;44.42;98123.53;6811345;29;20642;-84
2024/04/03 07:55:54;;;;;;;4.87;1.97;;;;;;;15.60;44.02;98108.00;6810564;29;20708;-84
2024/04/03 07:59:15;;;;;;;3.67;2.10;;;;;;;15.72;43.38;98114.13;6809704;29;20260;-84
2024/04/03 08:02:37;;;;;;;2.73;2.07;;;;;;;15.96;42.70;98110.88;6812386;29;20239;-84
2024/04/03 08:05:59;;;;;;;4.73;1.70;;;;;;;16.12;42.32;98103.69;6809843;29;20214;-83
2024/04/03 08:09:22;;;;;;;2.80;1.80;;;;;;;16.29;43.48;98105.22;6808726;29;20245;-83
2024/04/03 08:12:43;;;;;;;3.43;2.23;;;;;;;17.05;44.18;98099.31;6809288;29;20212;-83
2024/04/03 08:16:06;;;;;;;2.73;1.90;;;;;;;17.37;42.68;98101.94;6810842;29;20297;-83
2024/04/03 08:19:26;;;;;;;3.27;1.87;;;;;;;17.55;43.16;98096.88;6809069;29;20369;-84
2024/04/03 08:22:48;;;;;;;2.13;1.73;;;;;;;17.50;41.54;98087.84;6809434;29;20613;-83
2024/04/03 08:26:10;;;;;;;3.63;1.80;;;;;;;17.98;40.40;98071.13;6809248;29;20349;-84
2024/04/03 08:29:32;;;;;;;2.20;1.73;;;;;;;17.95;40.31;98077.09;6808839;29;20270;-84
2024/04/03 08:32:53;;;;;;;2.77;1.80;;;;;;;17.91;41.38;98070.53;6809199;29;20209;-84
2024/04/03 08:36:14;;;;;;;2.53;1.80;;;;;;;17.90;40.78;98079.81;6808851;29;20209;-83
2024/04/03 08:39:35;;;;;;;1.83;1.57;;;;;;;17.96;41.69;98076.00;6808621;29;20327;-84
2024/04/03 08:42:58;;;;;;;2.00;1.80;;;;;;;18.18;40.40;98065.69;6807820;29;20218;-83
2024/04/03 08:46:18;;;;;;;4.17;1.97;;;;;;;18.26;41.21;98073.31;6808401;29;20203;-84
2024/04/03 08:49:40;;;;;;;2.17;1.60;;;;;;;18.44;40.75;98065.47;6807893;29;20238;-84
2024/04/03 08:53:01;;;;;;;2.00;1.63;;;;;;;18.61;38.34;98062.44;6808260;29;20256;-84
2024/04/03 08:56:22;;;;;;;3.07;1.50;;;;;;;18.40;39.35;98056.16;6808891;29;20214;-84
2024/04/03 08:59:45;;;;;;;1.80;1.70;;;;;;;18.62;39.50;98047.69;6808180;29;20321;-84
2024/04/03 09:03:07;;;;;;;1.57;1.47;;;;;;;18.63;38.81;98022.03;6808349;29;20245;-84
2024/04/03 09:06:37;;;;;;;1.70;1.60;;;;;;;18.92;37.85;98047.66;6807239;29;20305;-84
2024/04/03 09:09:58;;;;;;;4.03;1.73;;;;;;;18.81;38.95;98040.59;6816886;29;20246;-83
2024/04/03 09:13:19;;;;;;;1.50;1.40;;;;;;;18.90;39.13;98045.22;6810790;29;20270;-84
2024/04/03 09:16:42;;;;;;;2.57;1.80;;;;;;;18.91;38.05;98043.28;6809806;29;20563;-84
2024/04/03 09:20:04;;;;;;;1.57;1.47;;;;;;;18.70;37.39;98019.84;6810739;29;20285;-84
2024/04/03 09:23:25;;;;;;;3.03;1.43;;;;;;;18.99;37.47;98034.53;6808862;29;20783;-83
2024/04/03 09:26:47;;;;;;;1.87;1.67;;;;;;;18.91;36.41;98024.16;6808158;29;20345;-83
2024/04/03 09:30:12;;;;;;;2.10;1.43;;;;;;;18.89;36.41;98021.72;6808060;29;20235;-84
2024/04/03 09:33:35;;;;;;;1.63;1.53;;;;;;;19.24;36.06;98026.28;6809301;29;20671;-83
2024/04/03 09:36:56;;;;;;;2.23;1.37;;;;;;;19.05;36.81;98014.31;6808361;29;20300;-84
2024/04/03 09:40:18;;;;;;;3.07;1.50;;;;;;;19.63;35.47;98003.41;6809315;29;20786;-84
2024/04/03 09:43:44;;;;;;;3.00;1.40;;;;;;;19.95;35.43;98017.44;6807791;29;20211;-85
2024/04/03 09:47:11;;;;;;;1.70;1.60;;;;;;;20.63;33.97;98004.59;6808311;29;20222;-83
2024/04/03 09:50:37;;;;;;;2.93;1.73;;;;;;;20.38;33.93;98013.84;6806863;29;20321;-83
2024/04/03 09:53:57;;;;;;;1.43;1.33;;;;;;;20.93;32.81;97999.63;6813560;29;20647;-83
2024/04/03 09:57:19;;;;;;;1.50;1.40;;;;;;;21.31;31.62;97991.22;6814825;29;20210;-83
2024/04/03 10:00:50;;;;;;;1.33;1.20;;;;;;;21.23;31.26;97993.00;6788844;29;20247;-83
2024/04/03 10:04:16;;;;;;;1.50;1.40;;;;;;;21.29;30.71;97985.22;6810359;29;20360;-83
2024/04/03 10:07:39;;;;;;;2.40;1.70;;;;;;;21.77;32.77;97981.31;6814463;29;20224;-84
2024/04/03 10:11:05;;;;;;;1.27;1.17;;;;;;;22.41;30.00;97972.31;6812038;29;20322;-84
2024/04/03 10:14:27;;;;;;;2.90;1.40;;;;;;;21.47;30.92;97972.66;6809099;29;20292;-83
2024/04/03 10:17:48;;;;;;;1.70;1.43;;;;;;;22.10;30.15;97961.03;6792470;29;20289;-83
2024/04/03 10:21:10;;;;;;;2.10;1.40;;;;;;;22.33;30.09;97976.59;6791987;29;20206;-83
2024/04/03 10:24:33;;;;;;;1.53;1.43;;;;;;;22.26;30.93;97973.41;6812302;29;20381;-83
2024/04/03 10:27:54;;;;;;;1.43;1.33;;;;;;;21.54;30.62;97975.88;6795336;29;20254;-86
2024/04/03 10:31:18;;;;;;;2.33;1.60;;;;;;;21.45;29.95;97983.09;6815894;29;20236;-84
2024/04/03 10:34:39;;;;;;;2.20;1.47;;;;;;;22.08;30.80;97944.03;6814325;29;20303;-84
2024/04/03 10:38:01;;;;;;;2.57;1.53;;;;;;;22.37;29.71;97980.34;6819457;29;20273;-84
2024/04/03 10:41:24;;;;;;;2.33;1.33;;;;;;;22.48;30.37;97965.34;6820182;29;20286;-85
2024/04/03 10:44:45;;;;;;;3.47;1.57;;;;;;;21.72;31.11;97967.66;6811293;29;20288;-82
2024/04/03 10:48:09;;;;;;;2.00;1.40;;;;;;;20.24;32.92;97971.81;6810602;29;20319;-85
2024/04/03 10:51:30;;;;;;;3.17;2.87;;;;;;;20.02;34.67;97987.84;6812010;29;20241;-83
2024/04/03 10:54:52;;;;;;;2.03;1.40;;;;;;;20.26;34.56;97988.75;6812381;29;20213;-82
2024/04/03 10:58:15;;;;;;;1.73;1.50;;;;;;;19.64;35.36;97994.09;6811783;29;20241;-85
2024/04/03 11:01:36;;;;;;;2.40;1.70;;;;;;;18.97;37.86;98001.19;6812502;29;20296;-84
2024/04/03 11:04:57;;;;;;;1.20;1.20;;;;;;;19.17;41.35;98006.59;6813349;29;20227;-85
2024/04/03 11:08:19;;;;;;;1.60;1.17;;;;;;;19.66;40.50;98023.91;6811429;29;20305;-84
2024/04/03 11:11:41;;;;;;;2.53;1.27;;;;;;;19.43;41.17;98010.88;6811918;29;20801;-84
2024/04/03 11:15:06;;;;;;;1.07;1.00;;;;;;;18.67;40.54;98018.47;6809884;29;20219;-83
2024/04/03 11:18:28;;;;;;;1.93;1.50;;;;;;;18.79;41.04;98019.00;6802589;29;20261;-84
2024/04/03 11:21:49;;;;;;;0.90;0.90;;;;;;;17.64;43.50;98026.31;6800005;29;20346;-84
2024/04/03 11:25:12;;;;;;;1.23;1.10;;;;;;;18.08;43.04;98032.94;6791834;29;20298;-84
2024/04/03 11:28:33;;;;;;;1.17;1.17;;;;;;;18.37;41.58;98017.69;6798884;29;20284;-84
2024/04/03 11:31:56;;;;;;;1.10;1.10;;;;;;;18.23;43.86;98039.22;6800306;29;20235;-84
2024/04/03 11:35:17;;;;;;;3.50;1.13;;;;;;;18.37;42.87;98032.16;6802739;29;20242;-84
2024/04/03 11:38:39;;;;;;;1.37;1.20;;;;;;;17.73;43.63;98030.13;6798403;29;20365;-84
2024/04/03 11:42:01;;;;;;;2.00;1.23;;;;;;;17.84;44.13;98020.88;6794437;29;20218;-84
2024/04/03 11:45:22;;;;;;;1.30;1.20;;;;;;;18.05;43.76;98017.91;6801206;29;20218;-84
2024/04/03 11:48:44;;;;;;;2.03;1.40;;;;;;;17.44;43.75;98023.50;6792857;29;20378;-84
2024/04/03 11:52:06;;;;;;;1.10;1.00;;;;;;;17.53;43.71;98027.38;6798468;29;20226;-84
2024/04/03 11:55:26;;;;;;;1.00;1.00;;;;;;;18.36;41.86;98027.81;6800957;29;20618;-84
2024/04/03 11:58:48;;;;;;;1.63;1.13;;;;;;;17.26;43.26;98032.13;6792633;29;20267;-84
2024/04/03 12:02:09;;;;;;;1.10;1.10;;;;;;;17.07;43.05;98026.34;6801047;29;20289;-84
2024/04/03 12:05:31;;;;;;;0.90;0.90;;;;;;;16.78;43.92;98026.97;6807972;29;20320;-84
2024/04/03 12:08:53;;;;;;;1.20;0.93;;;;;;;17.65;44.71;98034.22;6797567;29;20240;-84
2024/04/03 12:12:15;;;;;;;1.30;1.20;;;;;;;17.45;45.16;98027.91;6802267;29;20299;-84
2024/04/03 12:15:35;;;;;;;0.97;0.97;;;;;;;16.85;44.73;98031.13;6800601;29;20218;-84
2024/04/03 12:19:13;;;;;;;1.00;1.00;;;;;;;17.14;45.78;98034.25;6805449;29;20659;-83
2024/04/03 12:22:34;;;;;;;2.33;1.30;;;;;;;17.86;45.90;98018.72;6808593;29;20205;-85
2024/04/03 12:25:56;;;;;;;1.30;1.20;;;;;;;18.00;45.13;98031.56;6808781;29;20229;-84
2024/04/03 12:29:18;;;;;;;1.00;1.00;;;;;;;17.23;45.61;98025.31;6807679;29;20272;-84
2024/04/03 12:32:39;;;;;;;1.20;1.17;;;;;;;17.31;45.92;98043.06;6808797;29;20214;-84
2024/04/03 12:36:00;;;;;;;1.30;1.10;;;;;;;17.30;46.08;98006.84;6809291;29;20290;-83
2024/04/03 12:39:24;;;;;;;1.90;1.70;;;;;;;17.24;46.82;98026.97;6808086;29;20261;-84
2024/04/03 12:42:46;;;;;;;0.80;0.80;;;;;;;16.80;47.51;98041.97;6808991;29;20210;-84
2024/04/03 12:46:09;;;;;;;1.20;1.10;;;;;;;17.61;46.94;98037.75;6808604;29;20349;-84
2024/04/03 12:49:30;;;;;;;1.50;1.40;;;;;;;17.08;45.81;98038.03;6807795;29;20809;-83
2024/04/03 12:52:52;;;;;;;1.50;1.40;;;;;;;16.96;47.59;98030.09;6808124;29;20290;-84
2024/04/03 12:56:15;;;;;;;1.00;1.00;;;;;;;17.25;46.06;98039.50;6808566;29;20273;-83
2024/04/03 12:59:35;;;;;;;1.40;1.30;;;;;;;16.60;47.80;98025.53;6810440;29;20227;-84
2024/04/03 13:02:57;;;;;;;5.50;2.13;;;;;;;17.08;46.54;98032.59;6810684;29;20290;-84
2024/04/03 13:06:21;;;;;;;1.00;1.00;;;;;;;17.68;45.23;98022.78;6807377;29;20289;-83
2024/04/03 13:09:43;;;;;;;1.60;1.50;;;;;;;17.67;47.58;98033.94;6807095;29;20230;-83
2024/04/03 13:13:06;;;;;;;1.27;1.27;;;;;;;17.68;46.89;98030.94;6807147;29;20221;-83
2024/04/03 13:16:27;;;;;;;1.40;1.30;;;;;;;17.39;48.09;98034.41;6807015;29;20250;-83
2024/04/03 13:19:49;;;;;;;1.70;1.70;;;;;;;17.63;48.47;98024.69;6806642;29;20226;-84
2024/04/03 13:23:11;;;;;;;1.10;1.10;;;;;;;17.31;48.30;98022.09;6807364;29;20214;-84
2024/04/03 13:26:32;;;;;;;1.20;1.20;;;;;;;17.52;48.00;98031.97;6806242;29;20721;-84
2024/04/03 13:29:54;;;;;;;1.10;1.10;;;;;;;17.78;46.15;98027.44;6806709;29;20257;-84
2024/04/03 13:33:16;;;;;;;1.43;1.30;;;;;;;17.19;49.91;98028.84;6806552;29;20217;-84
2024/04/03 13:36:37;;;;;;;1.00;1.00;;;;;;;17.38;49.28;98044.47;6806236;29;20213;-84
2024/04/03 13:39:58;;;;;;;1.20;1.10;;;;;;;17.34;49.37;98037.09;6806685;29;20230;-83
2024/04/03 13:43:20;;;;;;;1.00;1.00;;;;;;;17.18;49.74;98051.72;6806989;29;20206;-84
2024/04/03 13:46:42;;;;;;;1.70;1.60;;;;;;;17.29;49.94;98039.78;6806145;29;20309;-85
2024/04/03 13:50:09;;;;;;;1.67;1.20;;;;;;;17.08;51.60;98059.81;6806270;29;20273;-85
2024/04/03 13:53:29;;;;;;;1.50;1.40;;;;;;;17.07;53.06;98056.31;6805120;29;20242;-85
2024/04/03 13:56:51;;;;;;;1.00;1.00;;;;;;;17.47;51.14;98048.34;6797430;29;20214;-82
2024/04/03 14:00:21;;;;;;;1.20;1.10;;;;;;;17.48;51.40;98052.72;6802000;29;20779;-85
2024/04/03 14:03:44;;;;;;;1.00;1.00;;;;;;;17.79;50.48;98048.97;6789336;29;20602;-85
2024/04/03 14:07:07;;;;;;;1.80;1.50;;;;;;;17.58;50.56;98050.00;6803895;29;20339;-82
2024/04/03 14:10:28;;;;;;;1.23;1.20;;;;;;;17.34;51.19;98058.88;6788623;29;20246;-84
2024/04/03 14:13:51;;;;;;;1.30;1.20;;;;;;;17.33;51.88;98058.06;6789096;29;20376;-84
2024/04/03 14:17:13;;;;;;;1.50;1.30;;;;;;;17.22;52.41;98037.28;6779795;29;20290;-85
2024/04/03 14:20:36;;;;;;;1.20;1.20;;;;;;;17.41;51.99;98056.75;6788253;29;20353;-85
2024/04/03 14:24:00;;;;;;;1.10;1.10;;;;;;;17.58;51.63;98065.53;6782075;29;20245;-85
2024/04/03 14:27:22;;;;;;;1.77;1.30;;;;;;;17.74;51.26;98064.53;6805896;29;20219;-84
2024/04/03 14:30:44;;;;;;;1.20;1.20;;;;;;;17.37;52.44;98063.78;6806289;29;20761;-82
2024/04/03 14:34:05;;;;;;;1.50;1.40;;;;;;;17.74;51.17;98068.03;6806271;29;20213;-84
2024/04/03 14:37:28;;;;;;;1.20;1.20;;;;;;;17.88;50.65;98079.28;6806717;29;20210;-84
2024/04/03 14:40:49;;;;;;;4.73;4.30;;;;;;;17.73;51.81;98077.31;6807958;29;20313;-84
2024/04/03 14:44:10;;;;;;;1.70;1.60;;;;;;;17.26;52.91;98076.56;6806259;29;20353;-85
2024/04/03 14:47:32;;;;;;;1.83;1.73;;;;;;;17.27;53.23;98082.84;6810659;29;20225;-84
2024/04/03 14:50:57;;;;;;;1.93;1.40;;;;;;;17.84;52.05;98084.44;6811021;29;20269;-85
2024/04/03 14:54:21;;;;;;;1.60;1.50;;;;;;;17.84;52.51;98083.63;6810829;29;20199;-84
2024/04/03 14:57:42;;;;;;;1.47;1.37;;;;;;;17.89;52.46;98092.66;6810086;29;20591;-83
2024/04/03 15:01:04;;;;;;;1.87;1.40;;;;;;;17.56;52.74;98090.34;6810534;29;20358;-84
2024/04/03 15:04:25;;;;;;;2.37;1.23;;;;;;;16.96;54.35;98108.22;6810441;29;20292;-85
2024/04/03 15:07:47;;;;;;;1.43;1.43;;;;;;;17.25;54.18;98096.72;6809821;29;20207;-84
2024/04/03 15:11:10;;;;;;;2.00;1.20;;;;;;;16.47;56.24;98104.91;6809958;29;20325;-85
2024/04/03 15:14:32;;;;;;;1.20;1.20;;;;;;;16.75;56.42;98099.09;6810178;29;20225;-84
2024/04/03 15:17:53;;;;;;;1.30;1.30;;;;;;;16.66;57.15;98097.97;6809586;29;20226;-84
2024/04/03 15:21:15;;;;;;;1.33;1.23;;;;;;;16.80;57.35;98103.78;6810099;29;20230;-85
2024/04/03 15:24:36;;;;;;;1.20;1.20;;;;;;;16.72;56.26;98104.25;6809934;29;20242;-85
2024/04/03 15:27:59;;;;;;;1.57;1.43;;;;;;;16.97;57.07;98105.25;6809668;29;20210;-84
2024/04/03 15:31:20;;;;;;;1.23;1.23;;;;;;;16.77;57.33;98094.25;6815461;29;20270;-84
2024/04/03 15:34:43;;;;;;;1.43;1.33;;;;;;;16.31;58.22;98096.81;6818250;29;20654;-84
2024/04/03 15:38:04;;;;;;;1.43;1.33;;;;;;;16.67;57.55;98086.00;6812254;29;20227;-84
2024/04/03 15:41:25;;;;;;;1.47;1.37;;;;;;;16.71;57.29;98091.72;6809790;29;20295;-85
2024/04/03 15:44:53;;;;;;;2.07;1.50;;;;;;;16.88;57.30;98098.66;6809796;29;20209;-85
2024/04/03 15:48:15;;;;;;;1.80;1.70;;;;;;;16.60;59.27;98087.28;6806323;29;20304;-84
2024/04/03 15:51:35;;;;;;;2.30;1.60;;;;;;;16.93;58.77;98106.06;6808650;29;20735;-84
2024/04/03 15:54:57;;;;;;;2.60;1.60;;;;;;;16.87;58.48;98107.09;6809809;29;20207;-85